Time;durP1;ratioP1;P1;durP2;ratioP2;P2;SDS_P1;SDS_P2;PMS_P1;PMS_P2;Temp;Humidity;BMP_temperature;BMP_pressure;BME280_temperature;BME280_humidity;BME280_pressure;Samples;Min_cycle;Max_cycle;Signal;HPM_P1;HPM_P2
2021/05/31 00:00:54;;;;;;;;;;;;;;;20.25;38.13;101207.31;5088506;28;20283;-87
2021/05/31 00:03:38;;;;;;;;;;;;;;;20.28;37.61;101197.50;5105403;28;19912;-86
2021/05/31 00:06:24;;;;;;;;;;;;;;;20.23;38.79;101189.50;5087498;28;20392;-88
2021/05/31 00:09:08;;;;;;;;;;;;;;;20.27;37.71;101193.13;5093146;28;20489;-88
2021/05/31 00:11:53;;;;;;;;;;;;;;;20.22;39.86;101194.25;5096235;28;20573;-88
2021/05/31 00:14:37;;;;;;;;;;;;;;;20.19;39.01;101191.44;5071285;28;19913;-89
2021/05/31 00:17:24;;;;;;;;;;;;;;;20.19;38.53;101189.47;5085312;28;19917;-88
2021/05/31 00:20:10;;;;;;;;;;;;;;;20.11;37.46;101181.44;5102312;28;20295;-88
2021/05/31 00:22:54;;;;;;;;;;;;;;;20.20;39.16;101188.31;5070767;28;19912;-87
2021/05/31 00:25:39;;;;;;;;;;;;;;;20.25;39.48;101182.47;5100154;28;19912;-88
2021/05/31 00:28:24;;;;;;;;;;;;;;;20.25;38.53;101179.72;5099762;28;20363;-88
2021/05/31 00:31:09;;;;;;;;;;;;;;;20.26;39.20;101180.50;5085222;28;20364;-88
2021/05/31 00:33:54;;;;;;;;;;;;;;;20.25;39.40;101174.19;5093332;28;19912;-89
2021/05/31 00:36:39;;;;;;;;;;;;;;;20.26;36.96;101175.78;5090201;28;19912;-88
2021/05/31 00:39:24;;;;;;;;;;;;;;;20.24;38.58;101169.81;5097162;28;19916;-88
2021/05/31 00:42:10;;;;;;;;;;;;;;;20.22;39.11;101180.44;5099233;28;19920;-88
2021/05/31 00:44:55;;;;;;;;;;;;;;;20.24;38.41;101180.06;5071214;28;19916;-88
2021/05/31 00:47:40;;;;;;;;;;;;;;;20.27;38.05;101191.16;5083941;28;19912;-88
2021/05/31 00:50:25;;;;;;;;;;;;;;;20.19;37.26;101191.44;5102984;28;19912;-88
2021/05/31 00:53:10;;;;;;;;;;;;;;;20.28;39.04;101190.00;5108078;28;19912;-88
2021/05/31 00:55:55;;;;;;;;;;;;;;;20.28;37.81;101192.78;5100350;28;19912;-88
2021/05/31 00:58:39;;;;;;;;;;;;;;;20.20;37.30;101191.06;5102321;28;19916;-88
2021/05/31 01:01:24;;;;;;;;;;;;;;;20.16;38.10;101192.97;5099644;28;19912;-89
2021/05/31 01:04:09;;;;;;;;;;;;;;;20.19;37.63;101192.22;5091442;28;20400;-89
2021/05/31 01:07:02;;;;;;;;;;;;;;;19.98;38.38;101197.38;5099191;28;19912;-88
2021/05/31 01:09:56;;;;;;;;;;;;;;;20.04;38.64;101204.19;5096035;28;19912;-89
2021/05/31 01:13:00;;;;;;;;;;;;;;;19.98;38.20;101198.16;5084625;28;19912;-88
2021/05/31 01:15:51;;;;;;;;;;;;;;;19.91;38.47;101202.78;5094100;28;19912;-89
2021/05/31 01:18:44;;;;;;;;;;;;;;;19.92;38.70;101204.34;5101844;28;19916;-89
2021/05/31 01:21:31;;;;;;;;;;;;;;;19.88;38.75;101201.53;5099442;28;20586;-88
2021/05/31 01:24:36;;;;;;;;;;;;;;;19.86;39.27;101200.31;5109211;28;19912;-88
2021/05/31 01:27:20;;;;;;;;;;;;;;;19.88;40.39;101192.44;5082311;28;19912;-90
2021/05/31 01:30:06;;;;;;;;;;;;;;;19.85;39.48;101187.69;5099401;28;19912;-89
2021/05/31 01:32:52;;;;;;;;;;;;;;;19.76;39.24;101185.13;5090892;28;19912;-88
2021/05/31 01:35:38;;;;;;;;;;;;;;;19.82;40.08;101185.63;5095871;28;19912;-89
2021/05/31 01:38:23;;;;;;;;;;;;;;;19.75;39.70;101175.28;5081514;28;20306;-88
2021/05/31 01:41:09;;;;;;;;;;;;;;;19.82;39.65;101177.34;5106295;28;19912;-88
2021/05/31 01:43:54;;;;;;;;;;;;;;;19.75;39.82;101175.28;5108578;28;19912;-88
2021/05/31 01:46:39;;;;;;;;;;;;;;;19.75;39.87;101177.22;5098408;28;19912;-87
2021/05/31 01:49:24;;;;;;;;;;;;;;;19.69;39.83;101175.94;5101435;28;19912;-88
2021/05/31 01:52:08;;;;;;;;;;;;;;;19.73;40.04;101171.28;5098932;28;19912;-88
2021/05/31 01:54:57;;;;;;;;;;;;;;;19.72;39.86;101167.72;5096958;28;19912;-88
2021/05/31 01:57:43;;;;;;;;;;;;;;;19.69;40.19;101173.16;5095857;28;19912;-88
2021/05/31 02:00:28;;;;;;;;;;;;;;;19.64;40.69;101177.84;5100034;28;19912;-88
2021/05/31 02:03:12;;;;;;;;;;;;;;;19.61;41.12;101184.06;5090261;28;19911;-89
2021/05/31 02:05:57;;;;;;;;;;;;;;;19.54;40.70;101177.63;5092846;28;19911;-88
2021/05/31 02:08:44;;;;;;;;;;;;;;;19.62;40.44;101182.09;5104392;28;19912;-88
2021/05/31 02:11:42;;;;;;;;;;;;;;;19.66;40.67;101180.22;5098835;28;19911;-88
2021/05/31 02:14:38;;;;;;;;;;;;;;;19.61;40.71;101175.78;5104739;28;20291;-88
2021/05/31 02:17:23;;;;;;;;;;;;;;;19.55;40.78;101162.69;5101183;28;19915;-89
2021/05/31 02:20:09;;;;;;;;;;;;;;;19.51;40.73;101161.78;5092267;28;19916;-88
2021/05/31 02:22:56;;;;;;;;;;;;;;;19.55;40.93;101157.97;5095566;28;19912;-87
2021/05/31 02:25:41;;;;;;;;;;;;;;;19.48;41.39;101163.31;5096890;28;19912;-87
2021/05/31 02:28:26;;;;;;;;;;;;;;;19.43;41.99;101163.59;5107332;28;19911;-86
2021/05/31 02:31:11;;;;;;;;;;;;;;;19.49;41.92;101175.97;5092380;28;19912;-87
2021/05/31 02:33:56;;;;;;;;;;;;;;;19.50;41.98;101176.75;5090410;28;19913;-88
2021/05/31 02:36:41;;;;;;;;;;;;;;;19.45;41.92;101180.63;5096134;28;19912;-87
2021/05/31 02:39:26;;;;;;;;;;;;;;;19.55;42.28;101180.03;5101957;28;19916;-87
2021/05/31 02:42:11;;;;;;;;;;;;;;;19.56;41.73;101175.28;5099338;28;20530;-88
2021/05/31 02:44:55;;;;;;;;;;;;;;;19.48;41.92;101176.31;5087626;28;19920;-88
2021/05/31 02:47:40;;;;;;;;;;;;;;;19.53;41.65;101176.03;5103529;28;19911;-88
2021/05/31 02:50:29;;;;;;;;;;;;;;;19.53;41.38;101170.50;5101414;28;19912;-87
2021/05/31 02:53:14;;;;;;;;;;;;;;;19.49;41.47;101184.22;5082936;28;20300;-87
2021/05/31 02:56:01;;;;;;;;;;;;;;;19.55;41.99;101179.22;5097876;28;20287;-86
2021/05/31 02:58:45;;;;;;;;;;;;;;;19.51;41.66;101179.13;5106486;28;19915;-85
2021/05/31 03:01:35;;;;;;;;;;;;;;;19.52;41.53;101175.22;5096367;28;19916;-87
2021/05/31 03:04:20;;;;;;;;;;;;;;;19.53;41.67;101176.81;5104356;28;19912;-88
2021/05/31 03:07:05;;;;;;;;;;;;;;;19.52;42.10;101175.22;5096272;28;19911;-87
2021/05/31 03:09:50;;;;;;;;;;;;;;;19.45;42.65;101183.38;5078862;28;19912;-88
2021/05/31 03:12:34;;;;;;;;;;;;;;;19.54;41.87;101180.38;5079876;28;19912;-88
2021/05/31 03:15:20;;;;;;;;;;;;;;;19.51;42.51;101183.84;5090984;28;19912;-86
2021/05/31 03:18:07;;;;;;;;;;;;;;;19.52;42.27;101177.97;5098883;28;19916;-87
2021/05/31 03:20:52;;;;;;;;;;;;;;;19.46;42.33;101171.16;5100276;28;20408;-87
2021/05/31 03:23:36;;;;;;;;;;;;;;;19.37;42.37;101170.56;5086142;28;19931;-86
2021/05/31 03:26:25;;;;;;;;;;;;;;;19.29;43.26;101179.84;5099756;28;19955;-86
2021/05/31 03:29:11;;;;;;;;;;;;;;;19.29;43.25;101177.09;5105421;28;19911;-86
2021/05/31 03:31:55;;;;;;;;;;;;;;;19.34;43.25;101185.09;5076712;22;19928;-81
2021/05/31 03:34:40;;;;;;;;;;;;;;;19.28;43.63;101182.97;5114881;28;19915;-84
2021/05/31 03:37:24;;;;;;;;;;;;;;;19.32;43.73;101181.88;5115266;28;19911;-85
2021/05/31 03:40:10;;;;;;;;;;;;;;;19.36;43.82;101185.50;5111909;28;19916;-83
2021/05/31 03:42:55;;;;;;;;;;;;;;;19.34;43.83;101187.84;5108744;28;19919;-86
2021/05/31 03:45:39;;;;;;;;;;;;;;;19.30;44.19;101184.19;5120965;28;20292;-85
2021/05/31 03:48:24;;;;;;;;;;;;;;;19.29;44.08;101187.31;5119917;28;19911;-86
2021/05/31 03:51:09;;;;;;;;;;;;;;;19.27;44.26;101184.13;5096948;28;20379;-84
2021/05/31 03:53:54;;;;;;;;;;;;;;;19.27;44.50;101189.63;5118900;28;19937;-84
2021/05/31 03:56:40;;;;;;;;;;;;;;;19.28;44.26;101182.97;5116676;28;19912;-85
2021/05/31 03:59:25;;;;;;;;;;;;;;;19.27;44.73;101190.44;5114795;28;19923;-82
2021/05/31 04:02:10;;;;;;;;;;;;;;;19.33;44.47;101193.72;5110132;28;19970;-82
2021/05/31 04:04:56;;;;;;;;;;;;;;;19.34;44.47;101185.09;5115557;28;19921;-83
2021/05/31 04:13:49;;;;;;;;;;;;;;;19.28;44.61;101196.75;5116697;28;19920;-88
2021/05/31 04:16:35;;;;;;;;;;;;;;;19.11;45.23;101187.75;5110891;28;19911;-87
2021/05/31 04:19:21;;;;;;;;;;;;;;;19.14;44.89;101191.75;5123160;28;19916;-89
2021/05/31 04:22:05;;;;;;;;;;;;;;;19.07;45.47;101184.13;5101561;28;20380;-86
2021/05/31 04:24:50;;;;;;;;;;;;;;;18.90;46.09;101198.28;5122953;28;19912;-87
2021/05/31 04:27:34;;;;;;;;;;;;;;;18.80;46.96;101196.91;5115915;28;19911;-85
2021/05/31 04:30:19;;;;;;;;;;;;;;;18.70;46.89;101202.16;5119705;28;19911;-84
2021/05/31 04:33:05;;;;;;;;;;;;;;;18.61;47.51;101196.03;5109588;28;19912;-83
2021/05/31 04:35:50;;;;;;;;;;;;;;;18.69;47.14;101209.63;5115097;28;19911;-85
2021/05/31 04:38:35;;;;;;;;;;;;;;;18.67;47.93;101206.44;5110844;28;19945;-87
2021/05/31 04:41:19;;;;;;;;;;;;;;;18.60;48.05;101205.47;5115287;28;20289;-84
2021/05/31 04:44:04;;;;;;;;;;;;;;;18.59;47.86;101203.88;5114032;28;19912;-83
2021/05/31 04:46:49;;;;;;;;;;;;;;;18.46;48.65;101213.34;5105191;28;20326;-84
2021/05/31 04:49:34;;;;;;;;;;;;;;;18.29;48.86;101214.50;5121585;28;19911;-84
2021/05/31 04:52:19;;;;;;;;;;;;;;;18.23;49.02;101213.19;5112496;28;19916;-81
2021/05/31 04:55:04;;;;;;;;;;;;;;;18.12;49.07;101214.88;5112995;28;19912;-81
2021/05/31 04:57:48;;;;;;;;;;;;;;;18.37;48.92;101211.59;5113889;28;19915;-81
2021/05/31 05:00:33;;;;;;;;;;;;;;;18.55;48.47;101208.47;5110070;28;19920;-81
2021/05/31 05:03:19;;;;;;;;;;;;;;;18.71;48.24;101198.25;5111276;28;19912;-82
2021/05/31 05:06:04;;;;;;;;;;;;;;;18.60;48.23;101208.22;5110645;28;19913;-80
2021/05/31 05:08:52;;;;;;;;;;;;;;;18.55;48.31;101208.47;5109960;28;19937;-82
2021/05/31 05:11:37;;;;;;;;;;;;;;;18.57;48.38;101209.75;5110203;28;19912;-80
2021/05/31 05:14:22;;;;;;;;;;;;;;;18.58;48.77;101210.53;5105761;28;19912;-83
2021/05/31 05:17:06;;;;;;;;;;;;;;;18.78;48.34;101221.28;5108792;28;19912;-81
2021/05/31 05:19:53;;;;;;;;;;;;;;;18.83;48.53;101208.38;5110844;28;20291;-81
2021/05/31 05:22:38;;;;;;;;;;;;;;;18.89;48.26;101213.25;5109619;28;19912;-81
2021/05/31 05:25:22;;;;;;;;;;;;;;;18.91;48.41;101204.59;5087113;28;20294;-82
2021/05/31 05:28:07;;;;;;;;;;;;;;;18.93;48.38;101196.78;5109637;28;20371;-80
2021/05/31 05:30:53;;;;;;;;;;;;;;;18.90;48.35;101205.75;5094673;28;19912;-82
2021/05/31 05:33:39;;;;;;;;;;;;;;;18.99;48.52;101206.38;5105555;28;19912;-81
2021/05/31 05:48:11;;;;;;;;;;;;;;;19.38;47.39;101223.75;5114821;28;19915;-82
2021/05/31 05:51:07;;;;;;;;;;;;;;;19.34;47.36;101212.66;5112821;28;20406;-86
2021/05/31 05:53:51;;;;;;;;;;;;;;;19.24;47.23;101207.72;5117839;28;19915;-84
2021/05/31 05:56:36;;;;;;;;;;;;;;;19.23;47.34;101209.69;5120177;28;19912;-84
2021/05/31 05:59:21;;;;;;;;;;;;;;;19.30;47.11;101208.22;5113739;28;19920;-83
2021/05/31 06:02:06;;;;;;;;;;;;;;;19.30;47.24;101222.78;5113496;28;19912;-83
2021/05/31 06:04:50;;;;;;;;;;;;;;;19.39;46.62;101209.63;5111889;28;19912;-84
2021/05/31 06:07:35;;;;;;;;;;;;;;;19.45;46.67;101213.72;5107000;28;19915;-83
2021/05/31 06:10:19;;;;;;;;;;;;;;;19.39;46.32;101214.31;5112600;28;19911;-81
2021/05/31 06:13:04;;;;;;;;;;;;;;;19.33;47.24;101210.25;5105416;28;20383;-84
2021/05/31 06:15:49;;;;;;;;;;;;;;;19.42;45.73;101214.41;5106640;28;19911;-77
2021/05/31 06:18:34;;;;;;;;;;;;;;;19.51;45.90;101214.19;5108925;28;19911;-82
2021/05/31 06:21:18;;;;;;;;;;;;;;;19.27;46.08;101211.69;5111689;28;19911;-83
2021/05/31 06:24:03;;;;;;;;;;;;;;;19.25;46.10;101212.03;5107256;28;19912;-84
2021/05/31 06:26:47;;;;;;;;;;;;;;;18.93;45.63;101224.34;5110678;28;19916;-85
2021/05/31 06:29:32;;;;;;;;;;;;;;;18.86;45.71;101224.19;5112078;28;19942;-84
2021/05/31 06:32:17;;;;;;;;;;;;;;;18.87;46.50;101221.06;5115065;28;19911;-87
2021/05/31 06:35:02;;;;;;;;;;;;;;;18.76;45.54;101215.31;5109442;28;19916;-86
2021/05/31 06:37:47;;;;;;;;;;;;;;;19.04;45.57;101214.38;5114457;28;19912;-85
2021/05/31 06:40:32;;;;;;;;;;;;;;;19.50;45.12;101216.19;5114589;28;20334;-85
2021/05/31 06:43:16;;;;;;;;;;;;;;;19.00;45.83;101216.22;5116047;28;19913;-82
2021/05/31 06:46:02;;;;;;;;;;;;;;;19.16;45.03;101214.22;5117391;28;19923;-86
2021/05/31 06:48:46;;;;;;;;;;;;;;;19.62;44.19;101216.00;5090046;28;20379;-83
2021/05/31 06:51:32;;;;;;;;;;;;;;;19.94;43.70;101213.06;5111044;28;20372;-88
2021/05/31 06:54:18;;;;;;;;;;;;;;;20.08;42.52;101216.88;5117816;28;19912;-86
2021/05/31 06:57:02;;;;;;;;;;;;;;;20.05;42.59;101206.59;5117333;28;19915;-86
2021/05/31 06:59:47;;;;;;;;;;;;;;;20.11;43.16;101201.56;5117505;28;19920;-85
2021/05/31 07:02:32;;;;;;;;;;;;;;;19.82;43.09;101202.19;5108585;28;19916;-85
2021/05/31 07:05:18;;;;;;;;;;;;;;;19.37;44.47;101209.16;5107952;28;19911;-85
2021/05/31 07:08:02;;;;;;;;;;;;;;;19.98;43.55;101205.66;5108481;28;19912;-83
2021/05/31 07:10:47;;;;;;;;;;;;;;;20.21;43.11;101206.47;5110653;28;19912;-84
2021/05/31 07:13:32;;;;;;;;;;;;;;;20.27;43.21;101209.69;5110120;28;19937;-84
2021/05/31 07:16:17;;;;;;;;;;;;;;;20.39;43.27;101210.34;5110977;28;19912;-83
2021/05/31 07:19:02;;;;;;;;;;;;;;;20.22;42.96;101197.00;5112575;28;19919;-84
2021/05/31 07:21:47;;;;;;;;;;;;;;;20.28;43.55;101195.53;5109483;28;20296;-82
2021/05/31 07:24:32;;;;;;;;;;;;;;;20.31;42.75;101197.59;5108702;28;20291;-83
2021/05/31 07:27:17;;;;;;;;;;;;;;;20.19;43.49;101202.47;5112677;28;19911;-80
2021/05/31 07:30:03;;;;;;;;;;;;;;;20.11;43.60;101206.28;5108964;28;20159;-82
2021/05/31 07:32:48;;;;;;;;;;;;;;;20.31;43.11;101194.84;5089541;28;20388;-83
2021/05/31 07:35:33;;;;;;;;;;;;;;;20.32;43.36;101198.38;5110494;28;19911;-80
2021/05/31 07:38:18;;;;;;;;;;;;;;;20.34;43.31;101198.81;5109199;28;19912;-84
2021/05/31 07:41:02;;;;;;;;;;;;;;;20.31;42.61;101192.06;5105060;28;19916;-83
2021/05/31 07:43:48;;;;;;;;;;;;;;;20.41;42.53;101193.41;5109755;28;20384;-79
2021/05/31 07:46:33;;;;;;;;;;;;;;;20.22;42.77;101196.19;5108730;28;19916;-81
2021/05/31 07:49:18;;;;;;;;;;;;;;;20.24;42.94;101189.16;5106646;28;19912;-82
2021/05/31 07:52:18;;;;;;;;;;;;;;;20.15;42.56;101196.91;5103076;28;20419;-83
2021/05/31 07:55:04;;;;;;;;;;;;;;;20.43;43.00;101199.34;5106153;28;20375;-81
2021/05/31 07:57:51;;;;;;;;;;;;;;;20.53;42.28;101189.63;5104514;28;19912;-81
2021/05/31 08:00:35;;;;;;;;;;;;;;;20.67;42.50;101206.47;5109907;28;19924;-81
2021/05/31 08:03:19;;;;;;;;;;;;;;;20.63;41.49;101200.06;5108718;28;20387;-79
2021/05/31 08:06:05;;;;;;;;;;;;;;;20.59;42.41;101200.00;5106312;28;20284;-83
2021/05/31 08:08:50;;;;;;;;;;;;;;;20.63;41.47;101195.31;5105638;28;19915;-83
2021/05/31 08:11:34;;;;;;;;;;;;;;;20.44;41.42;101199.00;5109274;28;19911;-83
2021/05/31 08:14:19;;;;;;;;;;;;;;;20.33;41.33;101200.78;5107277;28;20295;-81
2021/05/31 08:17:03;;;;;;;;;;;;;;;20.41;41.44;101198.94;5103457;28;20762;-80
2021/05/31 08:19:48;;;;;;;;;;;;;;;20.52;41.60;101202.66;5108020;28;19920;-83
2021/05/31 08:22:32;;;;;;;;;;;;;;;20.55;40.94;101195.59;5105362;28;19916;-79
2021/05/31 08:25:17;;;;;;;;;;;;;;;20.66;40.46;101193.81;5104314;28;19911;-78
2021/05/31 08:28:03;;;;;;;;;;;;;;;20.69;40.59;101193.84;5106597;28;19916;-80
2021/05/31 08:30:48;;;;;;;;;;;;;;;20.74;40.68;101187.19;5105238;28;19916;-81
2021/05/31 08:33:33;;;;;;;;;;;;;;;20.65;40.52;101193.00;5104059;28;19912;-83
2021/05/31 08:36:18;;;;;;;;;;;;;;;20.67;40.24;101182.34;5108052;28;19912;-82
2021/05/31 08:39:03;;;;;;;;;;;;;;;20.66;40.15;101185.50;5104361;28;19920;-81
2021/05/31 08:41:48;;;;;;;;;;;;;;;20.65;40.30;101181.16;5103645;28;19916;-80
2021/05/31 08:44:33;;;;;;;;;;;;;;;20.69;40.25;101187.53;5108331;28;19916;-80
2021/05/31 08:47:18;;;;;;;;;;;;;;;20.66;39.92;101182.75;5106478;28;20287;-81
2021/05/31 08:50:03;;;;;;;;;;;;;;;20.73;40.26;101182.84;5095881;28;19916;-80
2021/05/31 08:52:49;;;;;;;;;;;;;;;20.76;40.29;101182.91;5100225;28;19916;-83
2021/05/31 08:55:34;;;;;;;;;;;;;;;20.78;39.67;101180.56;5108140;28;19916;-80
2021/05/31 08:58:19;;;;;;;;;;;;;;;20.80;39.46;101183.75;5110481;28;20375;-80
2021/05/31 09:01:03;;;;;;;;;;;;;;;20.62;40.29;101174.38;5099719;28;19916;-83
2021/05/31 09:03:48;;;;;;;;;;;;;;;20.88;39.48;101177.16;5113631;28;20322;-81
2021/05/31 09:06:34;;;;;;;;;;;;;;;21.06;39.27;101180.16;5114300;28;19912;-81
2021/05/31 09:09:19;;;;;;;;;;;;;;;21.10;38.78;101172.72;5118297;28;19911;-80
2021/05/31 09:12:06;;;;;;;;;;;;;;;21.09;37.94;101173.88;5116292;28;19915;-80
2021/05/31 09:14:55;;;;;;;;;;;;;;;21.11;38.54;101168.78;5097000;28;19912;-80
2021/05/31 09:17:40;;;;;;;;;;;;;;;21.23;38.84;101174.06;5113085;28;19912;-80
2021/05/31 09:20:26;;;;;;;;;;;;;;;21.31;38.61;101175.78;5118869;28;19916;-82
2021/05/31 09:23:11;;;;;;;;;;;;;;;21.43;38.53;101162.88;5113275;28;19912;-80
2021/05/31 09:26:02;;;;;;;;;;;;;;;21.56;38.30;101164.19;5114840;28;19912;-82
2021/05/31 09:29:00;;;;;;;;;;;;;;;21.55;37.83;101162.59;5116303;28;19912;-81
2021/05/31 09:31:56;;;;;;;;;;;;;;;21.51;37.82;101164.53;5112124;22;19928;-87
2021/05/31 09:34:41;;;;;;;;;;;;;;;21.61;37.33;101169.38;5043713;28;19921;-82
2021/05/31 09:37:25;;;;;;;;;;;;;;;21.62;38.14;101171.00;5045145;28;19925;-84
2021/05/31 09:40:11;;;;;;;;;;;;;;;21.81;37.71;101170.00;5043149;28;19917;-83
2021/05/31 09:42:58;;;;;;;;;;;;;;;21.67;37.43;101160.38;5053749;28;19921;-83
2021/05/31 09:45:46;;;;;;;;;;;;;;;21.71;37.26;101155.66;5056612;28;19912;-85
2021/05/31 09:48:31;;;;;;;;;;;;;;;21.72;36.23;101151.72;5061992;28;19913;-84
2021/05/31 09:51:16;;;;;;;;;;;;;;;21.84;38.60;101166.47;5056277;28;19932;-83
2021/05/31 09:54:01;;;;;;;;;;;;;;;21.88;37.61;101170.88;5056504;28;20288;-83
2021/05/31 09:56:47;;;;;;;;;;;;;;;21.81;37.70;101164.44;5052423;28;19917;-84
2021/05/31 09:59:31;;;;;;;;;;;;;;;21.93;38.58;101162.22;5051610;28;19917;-82
2021/05/31 10:02:20;;;;;;;;;;;;;;;21.96;38.76;101155.94;5045618;28;19913;-86
2021/05/31 10:10:52;;;;;;;;;;;;;;;21.89;36.58;101155.81;5056141;28;19913;-83
2021/05/31 10:13:42;;;;;;;;;;;;;;;21.87;37.41;101151.84;5057696;28;19916;-84
2021/05/31 10:16:27;;;;;;;;;;;;;;;21.83;38.00;101148.28;5061711;28;19916;-83
2021/05/31 10:19:20;;;;;;;;;;;;;;;21.94;38.44;101146.44;5046188;28;19921;-85
2021/05/31 10:22:19;;;;;;;;;;;;;;;22.02;39.16;101148.88;5053423;28;19912;-84
2021/05/31 10:25:16;;;;;;;;;;;;;;;21.89;40.58;101139.22;5060157;28;19912;-86
2021/05/31 10:28:11;;;;;;;;;;;;;;;21.92;40.63;101146.78;5055634;28;19916;-85
2021/05/31 10:31:12;;;;;;;;;;;;;;;21.90;41.43;101137.25;5048432;28;19912;-84
2021/05/31 10:34:08;;;;;;;;;;;;;;;21.97;39.63;101134.56;5047232;28;19913;-85
2021/05/31 10:37:05;;;;;;;;;;;;;;;21.75;37.82;101133.53;5056694;28;19913;-83
2021/05/31 10:40:00;;;;;;;;;;;;;;;21.98;37.83;101125.91;5042309;28;19917;-83
2021/05/31 10:42:47;;;;;;;;;;;;;;;22.31;36.54;101132.47;5048065;28;19913;-84
2021/05/31 10:45:33;;;;;;;;;;;;;;;22.58;37.30;101131.88;5047392;28;19913;-81
2021/05/31 10:48:20;;;;;;;;;;;;;;;22.52;35.85;101132.63;5046135;28;20372;-83
2021/05/31 10:51:12;;;;;;;;;;;;;;;22.31;35.75;101129.69;5039513;28;19913;-84
2021/05/31 10:54:09;;;;;;;;;;;;;;;22.40;35.73;101128.19;5043114;28;19924;-83
2021/05/31 10:57:03;;;;;;;;;;;;;;;22.43;36.13;101118.31;5050933;28;19913;-84
2021/05/31 10:59:51;;;;;;;;;;;;;;;22.41;36.88;101117.88;5051846;28;19921;-84
2021/05/31 11:02:36;;;;;;;;;;;;;;;22.38;37.46;101115.91;5053542;28;19921;-82
2021/05/31 11:05:29;;;;;;;;;;;;;;;22.32;36.94;101117.44;5038226;28;19913;-80
2021/05/31 11:08:23;;;;;;;;;;;;;;;22.32;36.34;101111.91;5051221;28;19912;-84
2021/05/31 11:11:10;;;;;;;;;;;;;;;22.26;35.29;101110.66;5048285;28;19913;-87
2021/05/31 11:13:56;;;;;;;;;;;;;;;22.26;35.53;101107.88;5051853;28;19921;-82
2021/05/31 11:16:52;;;;;;;;;;;;;;;22.31;36.26;101108.31;5050705;28;19913;-83
2021/05/31 11:19:37;;;;;;;;;;;;;;;22.12;36.94;101108.59;5052541;28;19920;-81
2021/05/31 11:22:27;;;;;;;;;;;;;;;22.00;36.73;101109.66;5051191;28;19912;-82
2021/05/31 11:25:12;;;;;;;;;;;;;;;22.10;36.17;101105.41;5036754;28;19913;-83
2021/05/31 11:28:04;;;;;;;;;;;;;;;22.17;36.16;101105.47;5047658;28;19917;-82
2021/05/31 11:30:49;;;;;;;;;;;;;;;22.12;35.65;101103.03;5052846;28;19913;-80
2021/05/31 11:33:35;;;;;;;;;;;;;;;22.20;36.63;101104.69;5050030;28;19913;-83
2021/05/31 11:36:38;;;;;;;;;;;;;;;22.25;36.94;101103.56;5049231;28;20180;-83
2021/05/31 11:39:23;;;;;;;;;;;;;;;22.28;36.62;101100.78;5050432;28;19913;-82
2021/05/31 11:42:09;;;;;;;;;;;;;;;22.29;36.68;101096.06;5044456;28;20296;-82
2021/05/31 11:44:55;;;;;;;;;;;;;;;22.22;36.70;101094.03;5045557;28;20381;-81
2021/05/31 11:47:40;;;;;;;;;;;;;;;22.29;36.81;101084.97;5050851;28;19912;-79
2021/05/31 11:50:26;;;;;;;;;;;;;;;22.26;35.98;101078.22;5049500;28;19912;-82
2021/05/31 11:53:15;;;;;;;;;;;;;;;22.21;35.68;101073.03;5044478;28;19913;-81
2021/05/31 11:55:59;;;;;;;;;;;;;;;22.41;36.22;101073.56;5045353;28;19913;-80
2021/05/31 11:58:44;;;;;;;;;;;;;;;22.35;35.88;101077.88;5051433;28;19913;-84
2021/05/31 12:01:29;;;;;;;;;;;;;;;22.40;36.34;101075.53;5044638;28;19916;-84
2021/05/31 12:04:16;;;;;;;;;;;;;;;22.32;36.94;101068.34;5036246;28;20388;-81
2021/05/31 12:07:13;;;;;;;;;;;;;;;22.34;36.20;101070.75;5046492;28;19913;-83
2021/05/31 12:10:08;;;;;;;;;;;;;;;22.36;35.73;101058.09;5042288;28;19912;-82
2021/05/31 12:13:03;;;;;;;;;;;;;;;;;;;;;
2021/05/31 12:15:51;;;;;;;;;;;;;;;22.44;35.35;101056.16;5041026;28;19913;-84
2021/05/31 12:18:39;;;;;;;;;;;;;;;22.51;35.58;101047.88;5053060;28;19921;-83
2021/05/31 12:21:24;;;;;;;;;;;;;;;22.59;35.37;101052.28;5049328;28;19920;-84
2021/05/31 12:24:09;;;;;;;;;;;;;;;22.72;34.80;101047.22;5047045;28;20401;-84
2021/05/31 12:27:01;;;;;;;;;;;;;;;22.72;34.94;101041.66;5066089;28;19912;-83
2021/05/31 12:29:48;;;;;;;;;;;;;;;22.71;34.89;101038.09;5055252;28;19917;-83
2021/05/31 12:32:36;;;;;;;;;;;;;;;22.55;35.57;101040.38;5050591;28;19929;-84
2021/05/31 12:35:24;;;;;;;;;;;;;;;22.33;36.16;101028.38;5058673;28;19917;-82
2021/05/31 12:38:09;;;;;;;;;;;;;;;22.31;35.39;101032.72;5044515;28;19938;-84
2021/05/31 12:40:54;;;;;;;;;;;;;;;22.38;35.67;101021.69;5033388;28;19917;-83
2021/05/31 12:43:40;;;;;;;;;;;;;;;22.42;34.96;101023.28;5053520;28;19916;-83
2021/05/31 12:46:26;;;;;;;;;;;;;;;22.37;35.36;101022.84;5061575;28;19913;-82
2021/05/31 12:49:15;;;;;;;;;;;;;;;22.40;35.65;101020.09;5058146;28;19913;-82
2021/05/31 12:52:00;;;;;;;;;;;;;;;22.40;35.88;101017.31;5060028;28;19912;-82
2021/05/31 12:54:45;;;;;;;;;;;;;;;22.45;35.95;101016.19;5049818;28;20300;-82
2021/05/31 12:57:35;;;;;;;;;;;;;;;22.56;35.84;101017.81;5058131;28;19916;-84
2021/05/31 13:00:20;;;;;;;;;;;;;;;22.64;34.80;101013.09;5061047;28;19916;-85
2021/05/31 13:03:18;;;;;;;;;;;;;;;22.77;34.44;101014.34;5058113;28;20404;-82
2021/05/31 13:06:05;;;;;;;;;;;;;;;22.80;35.04;101005.28;5040119;28;19948;-85
2021/05/31 13:08:56;;;;;;;;;;;;;;;22.83;35.41;101007.25;5057024;28;19912;-82
2021/05/31 13:11:44;;;;;;;;;;;;;;;22.79;35.12;101006.44;5037553;28;19913;-82
2021/05/31 13:14:30;;;;;;;;;;;;;;;22.83;34.25;100998.94;5052805;28;19912;-80
2021/05/31 13:17:14;;;;;;;;;;;;;;;22.84;34.97;100997.75;5056643;28;19920;-83
2021/05/31 13:20:06;;;;;;;;;;;;;;;22.83;35.62;100993.38;5053683;28;19917;-83
2021/05/31 13:22:54;;;;;;;;;;;;;;;22.68;35.71;100993.69;5051005;28;19917;-82
2021/05/31 13:25:42;;;;;;;;;;;;;;;22.54;35.14;100983.34;5053919;28;19913;-80
2021/05/31 13:28:31;;;;;;;;;;;;;;;22.57;34.71;100983.34;5051129;28;19912;-82
2021/05/31 13:31:17;;;;;;;;;;;;;;;22.68;34.31;100975.09;5058828;28;19920;-82
2021/05/31 13:34:07;;;;;;;;;;;;;;;22.80;35.66;100974.78;5054685;28;20111;-83
2021/05/31 13:36:52;;;;;;;;;;;;;;;22.71;35.16;100973.53;5054549;28;19913;-83
2021/05/31 13:39:48;;;;;;;;;;;;;;;22.73;34.96;100977.50;5062090;28;19920;-85
2021/05/31 13:42:35;;;;;;;;;;;;;;;22.67;35.48;100973.50;5054375;28;19913;-83
2021/05/31 13:45:20;;;;;;;;;;;;;;;22.79;35.43;100973.19;5049196;28;19913;-85
2021/05/31 13:48:05;;;;;;;;;;;;;;;22.85;35.58;100968.03;5048536;28;19912;-83
2021/05/31 13:50:52;;;;;;;;;;;;;;;22.85;35.69;100965.28;5052955;28;19913;-82
2021/05/31 13:53:37;;;;;;;;;;;;;;;22.67;35.69;100956.84;5051588;28;19921;-80
2021/05/31 13:56:21;;;;;;;;;;;;;;;22.56;35.69;100961.56;5049036;28;19912;-84
2021/05/31 13:59:06;;;;;;;;;;;;;;;22.66;34.94;100954.47;5048941;28;19936;-83
2021/05/31 14:01:53;;;;;;;;;;;;;;;22.65;35.12;100953.69;5047480;28;20379;-81
2021/05/31 14:04:38;;;;;;;;;;;;;;;22.63;34.34;100949.72;5051699;28;19913;-80
2021/05/31 14:07:22;;;;;;;;;;;;;;;22.65;35.11;100953.69;5049231;28;19913;-81
2021/05/31 14:10:07;;;;;;;;;;;;;;;22.76;35.07;100949.00;5047285;28;20301;-83
2021/05/31 14:12:53;;;;;;;;;;;;;;;22.74;35.30;100950.56;5046053;28;19912;-81
2021/05/31 14:15:41;;;;;;;;;;;;;;;22.69;35.22;100937.88;5053107;28;20159;-84
2021/05/31 14:18:28;;;;;;;;;;;;;;;22.72;34.17;100948.19;5039740;28;19916;-83
2021/05/31 14:21:13;;;;;;;;;;;;;;;22.72;35.25;100942.66;5056974;28;19921;-84
2021/05/31 14:24:04;;;;;;;;;;;;;;;22.79;33.60;100944.66;5052368;28;19920;-84
2021/05/31 14:27:06;;;;;;;;;;;;;;;22.87;33.89;100947.03;5010731;28;19968;-85
2021/05/31 14:29:51;;;;;;;;;;;;;;;22.80;34.94;100941.50;5054088;28;19913;-85
2021/05/31 14:32:41;;;;;;;;;;;;;;;22.75;35.08;100944.66;5035093;28;19913;-86
2021/05/31 14:35:26;;;;;;;;;;;;;;;22.77;33.36;100935.91;5017385;28;19924;-85
2021/05/31 14:38:17;;;;;;;;;;;;;;;22.77;34.38;100928.41;5052191;28;19921;-82
2021/05/31 14:41:13;;;;;;;;;;;;;;;22.84;33.31;100930.41;5049206;28;19917;-82